Latest Weather Observations for Canberra

IDN60901

Issued at 3:41 pm EDT Sunday 29 November 2020 (issued every 10 minutes, with the page automatically refreshed every 10 minutes)

About weather observations | Map of Canberra area stations | Latest observations for Canberra area | Other Formats
Station Details ID: 070351 Name: CANBERRA AIRPORT Lat: -35.31 Lon: 149.20 Height: 577.05 m
Data from the previous 72 hours. | See also: Recent months at Canberra
Date/Time
EDT
Temp
°C
App
Temp
°C
Dew
Point
°C
Rel
Hum
%
Delta-T
°C
Wind Press
QNH
hPa
Press
MSL
hPa
Rain since
9am
mm
Dir  Spd
km/h
Gust
km/h
Spd
kts
Gust
kts
29/03:30pm 27.1 20.3 7.0 28 11.0 WNW 32 41 17 22 1005.6 1004.0 0.0
29/03:02pm 27.1 20.3 7.5 29 10.8 W 33 52 18 28 1005.4 1003.8 0.0
29/03:00pm 26.8 18.9 6.2 27 11.1 WNW 37 52 20 28 1005.4 1003.8 0.0
29/02:39pm 26.6 20.2 9.5 34 9.7 W 33 52 18 28 1005.1 1003.5 0.0
29/02:30pm 26.8 20.0 9.2 33 9.9 W 35 48 19 26 1005.4 1003.8 0.0
29/02:01pm 25.3 17.2 8.7 35 9.2 WNW 41 59 22 32 1005.2 1003.6 0.0
29/02:00pm 26.3 18.1 9.6 35 9.5 WNW 43 59 23 32 1005.1 1003.5 0.0
29/01:30pm 25.0 16.8 9.7 38 8.6 WNW 43 65 23 35 1004.6 1003.1 0.0
29/01:00pm 26.2 17.5 11.2 39 8.7 NW 48 69 26 37 1003.9 1002.3 0.0
29/12:34pm 25.2 15.4 8.7 35 9.1 NW 50 69 27 37 1004.0 1002.4 0.0
29/12:30pm 25.7 15.7 9.5 36 9.1 NW 52 65 28 35 1003.9 1002.3 0.0
29/12:00pm 26.1 18.8 11.5 40 8.6 WNW 41 61 22 33 1003.9 1002.3 0.0
29/11:41am 25.9 19.0 11.6 40 8.4 WNW 39 59 21 32 1003.6 1002.0 0.0
29/11:30am 26.6 19.2 11.1 38 9.0 WNW 41 54 22 29 1003.8 1002.2 0.0
29/11:01am 26.9 20.9 13.3 43 8.2 WNW 37 59 20 32 1003.6 1002.0 0.0
29/11:00am 26.9 21.1 14.0 45 7.9 WNW 37 54 20 29 1003.7 1002.1 0.0
29/10:43am 27.0 20.9 14.1 45 7.9 WNW 39 57 21 31 1003.6 1002.0 0.0
29/10:30am 27.0 21.1 13.7 44 8.1 WNW 37 52 20 28 1003.8 1002.2 0.0
29/10:00am 26.4 21.4 15.1 49 7.0 WNW 35 50 19 27 1003.8 1002.2 0.0
29/09:30am 26.0 19.4 15.4 52 6.6 NW 44 65 24 35 1003.5 1001.9 0.0
29/09:00am 26.5 19.1 14.3 47 7.5 NW 46 70 25 38 1003.1 1001.6 3.4
29/08:40am 26.8 20.0 14.2 46 7.7 NW 43 67 23 36 1002.8 1001.3 3.4
29/08:30am 26.6 21.0 14.4 47 7.5 NW 37 50 20 27 1002.8 1001.3 3.4
29/08:00am 25.5 20.9 14.6 51 6.7 NNW 32 48 17 26 1002.6 1001.1 3.4
29/07:30am 25.0 18.7 13.5 48 6.9 NNW 39 54 21 29 1002.4 1000.8 3.4
29/07:00am 24.1 18.5 13.3 51 6.5 NNW 35 46 19 25 1002.3 1000.7 3.4
29/06:30am 22.9 18.1 13.9 57 5.4 NNW 32 48 17 26 1002.2 1000.6 3.4
29/06:00am 21.9 17.3 14.5 63 4.5 NW 32 41 17 22 1002.3 1000.7 3.4
29/05:41am 21.5 17.9 15.3 68 3.8 NNW 28 39 15 21 1002.1 1000.5 3.4
29/05:30am 19.4 19.0 16.2 82 2.0 NW 13 19 7 10 1002.1 1000.5 3.4
29/05:00am 17.3 18.0 17.0 98 0.2 ESE 9 11 5 6 1002.2 1000.6 3.4
29/04:30am 18.0 19.2 16.9 93 0.7 SSE 6 9 3 5 1002.4 1000.8 3.4
29/04:00am 19.0 20.9 16.8 87 1.4 SW 2 11 1 6 1002.5 1000.9 3.4
29/03:39am 19.3 19.3 17.1 87 1.4 W 13 22 7 12 1002.8 1001.3 3.4
29/03:30am 19.9 19.4 16.9 83 1.9 NNE 15 24 8 13 1002.3 1000.7 3.4
29/03:26am 20.0 19.9 17.0 83 1.9 NNE 13 24 7 13 1002.0 1000.4 3.2
29/03:14am 19.1 18.8 17.4 90 1.1 ESE 15 20 8 11 1003.3 1001.7 3.0
29/03:04am 18.8 19.3 17.5 92 0.8 S 11 15 6 8 1004.9 1003.4 3.0
29/03:00am 18.3 19.3 16.8 91 0.9 SSE 7 15 4 8 1004.7 1003.2 3.0
29/02:30am 19.0 19.4 15.3 79 2.2 E 7 11 4 6 1004.2 1002.7 3.0
29/02:00am 20.9 21.5 15.9 73 3.1 SW 7 17 4 9 1005.6 1004.0 2.8
29/01:30am 21.2 20.6 15.7 71 3.4 NNW 13 19 7 10 1005.8 1004.3 2.8
29/01:00am 20.9 20.0 15.9 73 3.1 NNW 15 20 8 11 1006.3 1004.8 2.8
29/12:30am 21.7 19.0 15.5 68 3.8 N 24 30 13 16 1007.0 1005.4 2.8
29/12:00am 22.4 21.2 16.2 68 3.9 N 17 24 9 13 1008.0 1006.5 2.8
 
Date/Time
EDT
Temp
°C
App
Temp
°C
Dew
Point
°C
Rel
Hum
%
Delta-T
°C
Wind Press
QNH
hPa
Press
MSL
hPa
Rain since
9am
mm
Dir  Spd
km/h
Gust
km/h
Spd
kts
Gust
kts
28/11:30pm 22.9 19.8 15.7 64 4.4 N 26 37 14 20 1008.1 1006.6 2.8
28/11:00pm 22.7 22.7 16.3 67 4.0 N 11 15 6 8 1008.4 1006.9 2.8
28/10:30pm 21.5 23.0 17.5 78 2.5 NE 6 9 3 5 1008.9 1007.4 2.8
28/10:00pm 22.6 21.7 16.9 70 3.6 NNE 17 22 9 12 1008.8 1007.3 2.8
28/09:30pm 22.1 23.3 19.1 83 1.9 NW 11 20 6 11 1010.2 1008.8 2.8
28/09:00pm 23.0 24.1 17.9 73 3.3 E 9 13 5 7 1008.5 1007.0 2.0
28/08:30pm 23.1 24.0 17.6 71 3.5 NW 9 13 5 7 1008.1 1006.6 2.0
28/08:00pm 24.6 25.4 17.3 64 4.7 NNW 9 13 5 7 1007.9 1006.4 2.0
28/07:30pm 26.1 25.4 16.4 55 6.1 NNE 15 19 8 10 1006.8 1005.3 2.0
28/07:00pm 26.7 25.7 16.6 54 6.4 NE 17 19 9 10 1006.7 1005.2 2.0
28/06:30pm 25.6 25.8 18.5 65 4.6 NE 15 24 8 13 1007.2 1005.7 2.0
28/06:00pm 25.1 26.4 19.2 70 3.9 SSW 11 13 6 7 1008.4 1006.9 2.0
28/05:30pm 27.0 28.7 19.4 63 5.0 SW 9 17 5 9 1007.4 1005.9 2.0
28/05:00pm 28.0 28.5 18.4 56 6.3 N 13 19 7 10 1007.1 1005.5 2.0
28/04:30pm 25.2 25.7 20.0 73 3.4 E 17 22 9 12 1007.6 1006.1 2.0
28/04:00pm 24.4 26.2 18.8 71 3.6 NE 7 13 4 7 1009.2 1007.7 2.0
28/03:57pm 24.0 26.0 19.1 74 3.2 NE 7 17 4 9 1009.2 1007.7 2.0
28/03:47pm 21.8 19.0 17.2 75 2.9 WSW 28 46 15 25 1010.2 1008.8 1.8
28/03:46pm 21.8 18.5 17.0 74 3.0 WSW 30 46 16 25 1010.5 1009.1 1.8
28/03:42pm 21.8 18.2 17.6 77 2.7 SW 33 54 18 29 1010.4 1009.0 1.4
28/03:30pm 26.0 18.9 13.5 46 7.5 WNW 43 76 23 41 1009.4 1007.9 0.0
28/03:29pm 28.1 20.8 11.6 36 9.7 NW 41 76 22 41 1009.6 1008.1 0.0
28/03:28pm 30.4 23.6 11.9 32 11.1 NW 39 54 21 29 1009.6 1008.1 0.0
28/03:26pm 32.1 25.1 11.3 28 12.4 NNW 39 56 21 30 1008.3 1006.8 0.0
28/03:03pm 33.4 25.1 11.3 26 13.3 NNW 46 69 25 37 1007.1 1005.5 0.0
28/03:00pm 34.2 26.1 12.0 26 13.5 NNW 46 63 25 34 1007.1 1005.5 0.0
28/02:35pm 35.3 29.6 15.1 30 12.9 NNW 39 57 21 31 1007.9 1006.4 0.0
28/02:30pm 34.3 26.9 12.6 27 13.3 NNW 43 59 23 32 1008.0 1006.5 0.0
28/02:16pm 34.2 27.4 13.1 28 13.0 NNW 41 59 22 32 1008.3 1006.8 0.0
28/02:00pm 34.6 27.9 12.3 26 13.7 NNW 39 56 21 30 1008.6 1007.1 0.0
28/01:30pm 33.0 28.5 15.0 33 11.4 NNW 32 54 17 29 1009.5 1008.0 0.0
28/01:04pm 34.0 29.2 15.5 33 11.8 NNW 35 57 19 31 1009.8 1008.3 0.0
28/01:00pm 33.9 28.7 14.4 31 12.3 NNW 35 52 19 28 1009.8 1008.3 0.0
28/12:30pm 32.7 27.3 16.1 37 10.7 NNW 39 52 21 28 1010.2 1008.8 0.0
28/12:00pm 31.7 27.4 16.8 40 9.6 NNW 35 48 19 26 1011.0 1009.5 0.0
28/11:30am 31.4 26.5 15.4 38 10.1 NW 35 54 19 29 1011.5 1010.0 0.0
28/11:28am 31.5 27.6 17.0 41 9.4 NW 33 54 18 29 1011.6 1010.1 0.0
28/11:00am 30.3 27.8 17.0 44 8.6 NNW 26 39 14 21 1012.0 1010.6 0.0
28/10:30am 29.0 27.2 15.9 45 8.3 NW 20 30 11 16 1012.5 1011.0 0.0
28/10:00am 28.5 27.0 16.4 48 7.7 NW 19 32 10 17 1012.5 1011.0 0.0
28/09:30am 25.7 27.8 16.3 56 5.9 CALM 0 0 0 0 1012.8 1011.3 0.0
28/09:00am 23.8 26.6 18.9 74 3.2 S 2 7 1 4 1012.8 1011.3 0.0
28/08:30am 21.8 24.8 18.4 81 2.2 CALM 0 0 0 0 1012.9 1011.4 0.0
28/08:00am 19.7 22.2 17.3 86 1.5 CALM 0 0 0 0 1013.0 1011.5 0.0
28/07:30am 18.6 21.0 16.9 90 1.1 CALM 0 0 0 0 1012.9 1011.4 0.0
28/07:00am 17.3 19.7 17.0 98 0.2 CALM 0 0 0 0 1012.7 1011.2 0.0
28/06:30am 16.6 18.8 16.4 99 0.1 CALM 0 7 0 4 1012.5 1011.0 0.0
28/06:00am 15.3 15.8 15.0 98 0.2 SE 6 9 3 5 1012.3 1010.9 0.0
28/05:30am 15.5 17.2 15.3 99 0.1 CALM 0 0 0 0 1012.3 1010.9 0.0
28/05:00am 15.3 16.9 14.8 97 0.3 CALM 0 0 0 0 1012.2 1010.8 0.0
28/04:30am 15.6 17.3 15.3 98 0.2 CALM 0 0 0 0 1012.0 1010.6 0.0
28/04:00am 15.7 17.1 15.5 99 0.1 SE 2 6 1 3 1012.1 1010.7 0.0
28/03:30am 15.5 17.1 15.0 97 0.3 CALM 0 0 0 0 1012.2 1010.8 0.0
28/03:00am 16.2 17.7 14.7 91 0.9 CALM 0 0 0 0 1012.5 1011.0 0.0
28/02:30am 16.9 18.7 15.4 91 0.9 CALM 0 0 0 0 1012.8 1011.3 0.0
28/02:00am 16.6 18.2 14.8 89 1.1 CALM 0 0 0 0 1013.1 1011.6 0.0
28/01:30am 17.7 19.4 15.3 86 1.4 CALM 0 0 0 0 1013.4 1012.0 0.0
28/01:00am 18.4 20.4 16.0 86 1.5 CALM 0 0 0 0 1013.8 1012.4 0.0
28/12:30am 18.9 20.9 16.0 83 1.8 CALM 0 0 0 0 1013.9 1012.5 0.0
28/12:00am 18.4 20.5 16.2 87 1.3 CALM 0 0 0 0 1014.3 1012.8 0.0
 
Date/Time
EDT
Temp
°C
App
Temp
°C
Dew
Point
°C
Rel
Hum
%
Delta-T
°C
Wind Press
QNH
hPa
Press
MSL
hPa
Rain since
9am
mm
Dir  Spd
km/h
Gust
km/h
Spd
kts
Gust
kts
27/11:30pm 19.5 21.7 16.5 83 1.9 CALM 0 0 0 0 1014.5 1013.0 0.0
27/11:00pm 19.7 21.8 16.2 80 2.1 CALM 0 6 0 3 1014.5 1013.0 0.0
27/10:30pm 19.0 19.3 15.9 82 1.9 SSE 9 11 5 6 1014.5 1013.0 0.0
27/10:00pm 19.9 20.6 15.5 76 2.7 NNE 6 7 3 4 1014.5 1013.0 0.0
27/09:30pm 20.9 21.7 14.8 68 3.7 NE 4 9 2 5 1014.3 1012.8 0.0
27/09:00pm 22.1 22.7 15.2 65 4.2 NNE 6 7 3 4 1014.1 1012.7 0.0
27/08:30pm 25.4 26.1 16.0 56 5.9 NNE 7 9 4 5 1014.1 1012.7 0.0
27/08:00pm 25.1 25.0 16.0 57 5.7 NNE 11 13 6 7 1014.1 1012.7 0.0
27/07:30pm 27.4 27.1 15.4 48 7.5 NNW 11 13 6 7 1014.0 1012.6 0.0
27/07:00pm 29.2 29.1 15.0 42 8.9 W 9 13 5 7 1013.9 1012.5 0.0
27/06:30pm 30.3 28.9 14.4 38 9.9 WNW 15 19 8 10 1013.7 1012.3 0.0
27/06:00pm 30.1 28.1 15.0 40 9.5 WNW 19 26 10 14 1013.6 1012.2 0.0
27/05:30pm 30.9 27.9 14.9 37 10.0 WNW 24 32 13 17 1013.6 1012.2 0.0
27/05:00pm 31.1 28.8 14.7 37 10.3 W 20 30 11 16 1013.7 1012.3 0.0
27/04:30pm 30.9 27.5 13.7 35 10.6 WNW 24 35 13 19 1013.9 1012.5 0.0
27/04:00pm 30.7 25.7 13.5 35 10.6 NW 32 44 17 24 1014.1 1012.7 0.0
27/03:30pm 30.5 26.0 13.7 35 10.3 WNW 30 41 16 22 1014.4 1012.9 0.0
27/03:00pm 30.0 26.6 16.8 45 8.5 NW 30 41 16 22 1014.6 1013.1 0.0
27/02:30pm 29.2 26.8 16.4 46 8.2 NNW 24 35 13 19 1015.1 1013.7 0.0
27/02:00pm 28.4 26.3 16.3 47 7.7 NNW 22 30 12 16 1015.4 1014.0 0.0
27/01:30pm 28.3 26.6 16.2 47 7.7 NW 20 33 11 18 1016.2 1014.7 0.0
27/01:00pm 27.8 26.2 16.4 50 7.2 NW 20 30 11 16 1016.5 1015.1 0.0
27/12:30pm 26.6 25.3 15.9 51 6.7 NNW 17 26 9 14 1016.9 1015.5 0.0
27/12:00pm 24.5 24.7 14.3 53 6.2 NW 6 15 3 8 1017.5 1016.1 0.0
27/11:30am 22.8 22.2 13.6 56 5.5 SW 9 13 5 7 1018.0 1016.6 0.0
27/11:00am 21.3 20.6 11.9 55 5.4 W 7 11 4 6 1018.3 1016.9 0.0
27/10:30am 20.9 20.1 12.8 60 4.7 NNE 9 15 5 8 1018.7 1017.3 0.0
27/10:00am 19.6 18.9 11.9 61 4.4 N 7 11 4 6 1019.0 1017.6 0.0
27/09:30am 18.5 16.8 9.8 57 4.7 NNW 9 15 5 8 1019.1 1017.7 0.0
27/09:00am 18.0 17.5 10.9 63 3.9 NW 4 9 2 5 1019.5 1018.2 0.0
27/08:30am 17.2 17.1 10.8 66 3.5 SE 2 9 1 5 1019.6 1018.3 0.0
27/08:00am 16.1 15.0 10.8 71 2.9 SE 7 13 4 7 1019.6 1018.3 0.0
27/07:30am 15.1 13.6 10.7 75 2.4 SE 9 13 5 7 1019.5 1018.2 0.0
27/07:00am 13.9 12.6 11.1 83 1.5 SE 9 11 5 6 1019.4 1018.1 0.0
27/06:32am 13.5 12.1 11.0 85 1.4 ESE 9 11 5 6 1019.3 1018.0 0.0
27/06:30am 13.4 12.0 10.9 85 1.4 ESE 9 11 5 6 1019.2 1017.8 0.0
27/06:00am 13.6 12.0 11.5 87 1.1 E 11 13 6 7 1019.2 1017.8 0.0
27/05:30am 13.9 12.4 11.8 87 1.2 E 11 15 6 8 1019.1 1017.7 0.0
27/05:00am 14.1 12.7 12.1 88 1.1 ENE 11 13 6 7 1019.0 1017.6 0.0
27/04:30am 14.1 11.9 12.1 88 1.1 ENE 15 19 8 10 1019.0 1017.6 0.0
27/04:00am 14.3 11.8 12.3 88 1.1 ENE 17 19 9 10 1018.7 1017.3 0.0
27/03:57am 14.3 11.8 12.2 87 1.2 ENE 17 20 9 11 1018.7 1017.3 0.0
27/03:34am 14.7 13.3 12.2 85 1.4 ENE 11 15 6 8 1018.8 1017.4 0.0
27/03:30am 14.9 13.6 12.4 85 1.4 ENE 11 15 6 8 1019.0 1017.6 0.0
27/03:00am 15.3 14.0 12.4 83 1.6 ENE 11 13 6 7 1018.9 1017.5 0.0
27/02:30am 15.5 14.6 12.6 83 1.6 E 9 13 5 7 1019.1 1017.7 0.0
27/02:00am 15.5 13.9 12.8 84 1.5 E 13 20 7 11 1019.3 1018.0 0.0
27/01:30am 15.5 12.7 12.6 83 1.6 E 19 26 10 14 1019.5 1018.2 0.0
27/01:04am 15.6 12.6 12.7 83 1.6 E 20 30 11 16 1019.9 1018.5 0.0
27/01:00am 15.5 12.5 12.6 83 1.6 E 20 30 11 16 1020.1 1018.7 0.0
27/12:34am 15.6 12.7 12.4 81 1.8 ENE 19 30 10 16 1020.1 1018.7 0.0
27/12:30am 15.7 12.7 12.5 81 1.8 ENE 20 32 11 17 1020.0 1018.6 0.0
27/12:27am 15.7 12.7 12.5 81 1.8 ENE 20 32 11 17 1019.9 1018.5 0.0
27/12:00am 15.9 14.2 12.6 81 1.9 E 13 19 7 10 1020.1 1018.7 0.0
 
Date/Time
EDT
Temp
°C
App
Temp
°C
Dew
Point
°C
Rel
Hum
%
Delta-T
°C
Wind Press
QNH
hPa
Press
MSL
hPa
Rain since
9am
mm
Dir  Spd
km/h
Gust
km/h
Spd
kts
Gust
kts
26/11:35pm 16.0 14.0 12.7 81 1.9 E 15 24 8 13 1019.4 1018.1 0.0
26/11:30pm 16.0 14.0 12.7 81 1.9 E 15 20 8 11 1019.5 1018.2 0.0
26/11:00pm 16.0 14.1 13.1 83 1.7 E 15 30 8 16 1019.0 1017.6 0.0
26/10:53pm 16.1 15.0 13.2 83 1.7 ESE 11 15 6 8 1019.0 1017.6 0.0
26/10:45pm 16.1 14.6 13.2 83 1.7 ESE 13 19 7 10 1019.0 1017.6 0.0
26/10:30pm 16.1 13.9 13.4 84 1.6 E 17 26 9 14 1018.6 1017.2 0.0
26/10:00pm 16.5 14.7 13.4 82 1.8 ESE 15 28 8 15 1018.4 1017.0 0.0
26/09:30pm 16.9 15.2 13.6 81 1.9 E 15 26 8 14 1017.3 1015.9 0.0
26/09:00pm 17.7 15.0 13.6 77 2.4 E 20 33 11 18 1016.7 1015.3 0.0
26/08:30pm 18.7 17.5 14.0 74 2.8 ENE 13 20 7 11 1016.0 1014.6 0.0
26/08:00pm 19.8 18.9 14.8 73 3.0 ESE 13 19 7 10 1015.5 1014.1 0.0
26/07:30pm 22.1 20.0 15.2 65 4.2 E 20 30 11 16 1014.1 1012.7 0.0
26/07:09pm 24.5 22.7 15.4 57 5.6 ENE 19 39 10 21 1013.6 1012.2 0.0
26/07:00pm 27.8 26.7 14.4 43 8.2 NW 13 19 7 10 1013.3 1011.9 0.0
26/06:30pm 27.5 24.5 13.8 43 8.3 NW 22 30 12 16 1012.7 1011.2 0.0
26/06:00pm 29.9 27.4 14.0 37 9.8 WNW 20 30 11 16 1012.2 1010.8 0.0
26/05:30pm 30.3 27.7 14.8 39 9.7 WNW 22 28 12 15 1012.0 1010.6 0.0
26/05:00pm 30.1 26.5 14.2 38 9.8 NNW 26 32 14 17 1011.9 1010.5 0.0
26/04:30pm 30.1 27.1 15.8 42 9.1 NNW 26 35 14 19 1012.0 1010.6 0.0
26/04:00pm 30.1 27.7 15.4 41 9.3 NNW 22 30 12 16 1012.2 1010.8 0.0

Latest Capital City Observations: Canberra | Sydney | Melbourne | Brisbane | Adelaide | Perth | Hobart | Darwin

Other formats

Comma delimited format used in spreadsheet applications
http://www.bom.gov.au/fwo/IDN60903/IDN60903.94926.axf

JavaScript Object Notation format (JSON) in row-major order
http://www.bom.gov.au/fwo/IDN60903/IDN60903.94926.json

Data quality

Most of these data are generated automatically and are frequently updated. Quality checks on data are not normally performed. It is possible for incorrect values to appear. Refer to information at About Latest Weather Observations and please check the disclaimer before using these data.